Monticello, KY (42633)

6:52 PM EDT on September 02, 2015 (GMT -0400)
Susie Community, Monticello, Urman-Link | | Change Station
CLOSE
Current Station
Personal Weather Station
Location: Monticello, KY
Elevation: 997 ft
Nearby Weather Stations

Elev 997 ft 36.78 °N, 84.96 °W | Updated 4 minutes ago

Clear
Clear
95.4 °F
Feels Like 103 °F
N
1.1
Wind Variable Wind from WNW

Today
High -- | Low -- °F
--% Chance of Precip.
Yesterday
High -- | Low -- °F
Precip. -- in
7:10 AM 8:06 PM
Waning Gibbous, 76% visible
Pressure 30.05 in
Visibility 10.0 miles
Clouds Mostly Cloudy 6000 ft
Heat Index 103 °F
Dew Point 71 °F
Humidity 46%
Rainfall 0.00 in
Snow Depth Not available.
UV 1 out of 12
Pollen 10.20 out of 12
Air Quality Not available.
Flu Activity Not available.
METAR KSME 022235Z AUTO 33003KT 10SM BKN060 30/16 A3005 RMK AO2
Pressure 30.05 in
Visibility 10.0 miles
Clouds Mostly Cloudy 6000 ft
Heat Index 103 °F
Dew Point 71 °F
Humidity 46%
Rainfall 0.00 in
Snow Depth Not available.
UV 1 out of 12
Pollen 10.20 out of 12
Air Quality Not available.
Flu Activity Not available.
METAR KSME 022235Z AUTO 33003KT 10SM BKN060 30/16 A3005 RMK AO2

10-Day Weather Forecast

×

Almanac

Astronomy

Sep. 02, 2015 Rise Set
Actual Time
Civil Twilight
Nautical Twilight
Astronomical Twilight
Moon
Length of Visible Light
Length of Day
Tomorrow will be .
, % of the Moon is Illuminated

Today's Extremes

State Highs State Lows

Community

WunderPhotos

Upload Photos

1,851,822 photos uploaded!

WunderBlogs® & News

Nearby

Air Quality

  Air Quality AQ Index Pollutant
Not available.

Snow Depth

Station Depth Elevation

Earthquake Activity

City Distance Mag. Time & Date
Minimum magnitude displayed is 2.5.

Coastal Water Temperatures

Place Temperature

Stations

Nearby Weather Stations

Station Location Temp. Windchill Dew Point Humidity Wind Precip. Elev Updated Type